createdAt,value
2023-05-05T00:01:08.425Z,2.58
2023-05-05T00:03:35.071Z,2.80
2023-05-05T00:06:02.034Z,2.78
2023-05-05T00:08:28.645Z,2.40
2023-05-05T00:10:55.158Z,2.90
2023-05-05T00:13:21.939Z,2.75
2023-05-05T00:15:50.648Z,3.80
2023-05-05T00:18:18.459Z,2.60
2023-05-05T00:20:45.636Z,2.92
2023-05-05T00:23:12.180Z,2.92
2023-05-05T00:25:38.612Z,2.38
2023-05-05T00:28:05.369Z,3.25
2023-05-05T00:30:31.756Z,2.70
2023-05-05T00:32:58.330Z,2.72
2023-05-05T00:35:24.770Z,2.50
2023-05-05T00:37:51.084Z,2.72
2023-05-05T00:40:17.509Z,2.80
2023-05-05T00:42:46.070Z,3.33
2023-05-05T00:45:14.195Z,3.13
2023-05-05T00:47:47.590Z,2.60
2023-05-05T00:50:22.336Z,2.88
2023-05-05T00:52:49.435Z,2.85
2023-05-05T00:55:16.070Z,2.88
2023-05-05T00:57:43.244Z,3.40
2023-05-05T01:00:10.409Z,3.33
2023-05-05T01:02:37.031Z,2.90
2023-05-05T01:05:03.942Z,2.67
2023-05-05T01:07:47.920Z,2.33
2023-05-05T01:10:25.110Z,2.88
2023-05-05T01:12:57.108Z,2.97
2023-05-05T01:15:37.658Z,3.20
2023-05-05T01:18:29.462Z,2.75
2023-05-05T01:21:06.961Z,2.75
2023-05-05T01:23:54.902Z,2.63
2023-05-05T01:26:45.864Z,3.00
2023-05-05T01:29:50.629Z,2.65
2023-05-05T01:32:25.478Z,3.35
2023-05-05T01:35:29.320Z,3.08
2023-05-05T01:38:06.017Z,2.08
2023-05-05T01:40:40.910Z,3.47
2023-05-05T01:43:10.242Z,2.35
2023-05-05T01:45:39.860Z,2.35
2023-05-05T01:48:08.077Z,2.78
2023-05-05T01:50:35.787Z,2.72
2023-05-05T01:53:04.665Z,2.95
2023-05-05T01:55:33.357Z,3.25
2023-05-05T01:58:02.181Z,3.33
2023-05-05T02:00:28.954Z,3.15
2023-05-05T02:02:56.603Z,2.40
2023-05-05T02:05:24.656Z,3.10
2023-05-05T02:07:53.512Z,3.45
2023-05-05T02:10:20.268Z,3.05
2023-05-05T02:12:47.679Z,3.50
2023-05-05T02:15:16.295Z,2.90
2023-05-05T02:17:43.590Z,3.10
2023-05-05T02:20:14.665Z,2.92
2023-05-05T02:22:41.265Z,3.08
2023-05-05T02:25:09.216Z,2.67
2023-05-05T02:27:37.195Z,3.33
2023-05-05T02:30:08.780Z,3.10
2023-05-05T02:32:40.216Z,3.47
2023-05-05T02:35:14.935Z,3.15
2023-05-05T02:37:48.522Z,3.28
2023-05-05T02:40:22.771Z,3.20
2023-05-05T02:42:51.339Z,2.65
2023-05-05T02:45:21.469Z,3.25
2023-05-05T02:47:47.955Z,3.30
2023-05-05T02:50:14.841Z,3.20
2023-05-05T02:52:41.788Z,3.78
2023-05-05T02:55:08.636Z,3.05
2023-05-05T02:57:42.528Z,2.67
2023-05-05T03:00:23.163Z,2.70
2023-05-05T03:03:18.521Z,3.65
2023-05-05T03:05:53.803Z,3.70
2023-05-05T03:08:50.497Z,3.33
2023-05-05T03:11:26.163Z,3.17
2023-05-05T03:13:59.396Z,3.28
2023-05-05T03:16:27.825Z,2.60
2023-05-05T03:18:57.020Z,2.97
2023-05-05T03:21:23.673Z,2.95
2023-05-05T03:23:50.344Z,3.13
2023-05-05T03:26:17.673Z,3.38
2023-05-05T03:28:44.174Z,3.28
2023-05-05T03:31:11.613Z,3.15
2023-05-05T03:33:37.929Z,3.88
2023-05-05T03:36:04.536Z,3.40
2023-05-05T03:38:30.832Z,3.28
2023-05-05T03:40:57.349Z,3.80
2023-05-05T03:43:23.635Z,3.65
2023-05-05T03:45:50.038Z,2.90
2023-05-05T03:48:16.420Z,3.95
2023-05-05T03:50:45.309Z,3.50
2023-05-05T03:53:11.755Z,3.58
2023-05-05T03:55:38.113Z,3.42
2023-05-05T03:58:04.408Z,3.30
2023-05-05T04:00:30.782Z,3.22
2023-05-05T04:02:57.509Z,5.20
2023-05-05T04:05:23.937Z,4.03
2023-05-05T04:07:50.346Z,3.50
2023-05-05T04:10:16.859Z,3.20
2023-05-05T04:12:43.570Z,3.75
2023-05-05T04:15:10.370Z,3.17
2023-05-05T04:17:36.661Z,3.63
2023-05-05T04:20:03.476Z,3.30
2023-05-05T04:22:29.804Z,2.90
2023-05-05T04:24:56.176Z,3.55
2023-05-05T04:27:22.565Z,3.58
2023-05-05T04:29:48.934Z,3.95
2023-05-05T04:32:15.379Z,4.00
2023-05-05T04:34:41.799Z,3.13
2023-05-05T04:37:08.257Z,4.25
2023-05-05T04:39:35.094Z,4.28
2023-05-05T04:42:01.414Z,3.53
2023-05-05T04:44:27.792Z,4.25
2023-05-05T04:46:54.343Z,3.67
2023-05-05T04:49:20.919Z,4.43
2023-05-05T04:51:47.385Z,3.70
2023-05-05T04:54:13.759Z,3.90
2023-05-05T04:56:40.314Z,3.50
2023-05-05T04:59:06.660Z,3.38
2023-05-05T05:01:33.152Z,4.13
2023-05-05T05:03:59.728Z,4.05
2023-05-05T05:06:26.044Z,3.92
2023-05-05T05:08:53.086Z,3.75
2023-05-05T05:11:19.480Z,4.45
2023-05-05T05:13:45.820Z,3.58
2023-05-05T05:16:12.311Z,4.10
2023-05-05T05:18:38.678Z,3.83
2023-05-05T05:21:05.197Z,3.90
2023-05-05T05:23:31.628Z,3.50
2023-05-05T05:25:58.148Z,4.25
2023-05-05T05:28:24.545Z,4.15
2023-05-05T05:30:51.105Z,4.07
2023-05-05T05:33:17.431Z,3.42
2023-05-05T05:35:43.799Z,3.80
2023-05-05T05:38:10.944Z,5.75
2023-05-05T05:40:37.762Z,4.60
2023-05-05T05:43:04.094Z,4.18
2023-05-05T05:45:30.598Z,3.83
2023-05-05T05:47:57.114Z,3.50
2023-05-05T05:50:23.532Z,3.67
2023-05-05T05:52:50.066Z,3.85
2023-05-05T05:55:16.535Z,3.83
2023-05-05T05:57:43.223Z,3.78
2023-05-05T06:00:10.197Z,4.15
2023-05-05T06:02:36.820Z,3.50
2023-05-05T06:05:04.020Z,4.22
2023-05-05T06:07:30.526Z,3.75
2023-05-05T06:09:56.862Z,3.83
2023-05-05T06:12:23.361Z,4.03
2023-05-05T06:14:49.652Z,3.72
2023-05-05T06:17:16.077Z,4.88
2023-05-05T06:19:42.610Z,4.22
2023-05-05T06:22:09.452Z,4.47
2023-05-05T06:24:35.956Z,3.97
2023-05-05T06:27:02.309Z,4.93
2023-05-05T06:29:28.882Z,3.90
2023-05-05T06:31:55.822Z,4.43
2023-05-05T06:34:22.224Z,4.15
2023-05-05T06:36:48.644Z,3.67
2023-05-05T06:39:16.199Z,3.65
2023-05-05T06:41:42.658Z,3.47
2023-05-05T06:44:08.979Z,4.13
2023-05-05T06:46:35.917Z,4.53
2023-05-05T06:49:02.258Z,3.95
2023-05-05T06:51:28.948Z,3.75
2023-05-05T06:53:55.309Z,3.53
2023-05-05T06:56:21.880Z,3.50
2023-05-05T06:58:48.531Z,5.18
2023-05-05T07:01:14.856Z,3.58
2023-05-05T07:03:42.683Z,4.03
2023-05-05T07:06:09.134Z,3.75
2023-05-05T07:08:35.785Z,3.40
2023-05-05T07:11:02.097Z,3.15
2023-05-05T07:13:28.797Z,4.00
2023-05-05T07:15:57.403Z,3.08
2023-05-05T07:18:23.727Z,3.97
2023-05-05T07:20:50.409Z,3.78
2023-05-05T07:23:16.767Z,3.72
2023-05-05T07:25:43.131Z,3.75
2023-05-05T07:28:09.924Z,3.20
2023-05-05T07:30:36.252Z,2.78
2023-05-05T07:33:02.934Z,3.50
2023-05-05T07:35:29.868Z,2.85
2023-05-05T07:37:56.311Z,3.30
2023-05-05T07:40:23.353Z,2.53
2023-05-05T07:42:49.746Z,2.78
2023-05-05T07:45:16.278Z,2.45
2023-05-05T07:47:42.982Z,2.55
2023-05-05T07:50:10.062Z,2.50
2023-05-05T07:52:45.387Z,2.58
2023-05-05T07:55:14.658Z,2.28
2023-05-05T07:57:41.272Z,1.95
2023-05-05T08:00:08.282Z,2.40
2023-05-05T08:02:35.021Z,2.08
2023-05-05T08:05:01.743Z,3.08
2023-05-05T08:07:31.158Z,2.20
2023-05-05T08:09:57.464Z,2.10
2023-05-05T08:12:23.891Z,2.35
2023-05-05T08:14:51.334Z,2.25
2023-05-05T08:17:18.483Z,1.63
2023-05-05T08:19:45.171Z,2.35
2023-05-05T08:22:12.319Z,2.50
2023-05-05T08:24:38.676Z,1.88
2023-05-05T08:27:04.977Z,4.00
2023-05-05T08:29:31.385Z,1.80
2023-05-05T08:31:57.692Z,1.38
2023-05-05T08:34:24.492Z,2.17
2023-05-05T08:36:51.194Z,1.85
2023-05-05T08:39:18.107Z,1.80
2023-05-05T08:41:44.862Z,2.33
2023-05-05T08:44:11.294Z,1.83
2023-05-05T08:46:39.757Z,1.98
2023-05-05T08:49:13.831Z,1.30
2023-05-05T08:51:43.303Z,2.17
2023-05-05T08:54:17.740Z,1.83
2023-05-05T08:56:46.932Z,1.60
2023-05-05T08:59:14.797Z,2.30
2023-05-05T09:01:42.172Z,1.50
2023-05-05T09:04:09.449Z,1.63
2023-05-05T09:06:36.108Z,1.55
2023-05-05T09:09:02.881Z,2.10
2023-05-05T09:11:29.572Z,1.58
2023-05-05T09:13:57.057Z,2.38
2023-05-05T09:16:23.386Z,1.50
2023-05-05T09:18:49.747Z,2.03
2023-05-05T09:21:23.460Z,1.70
2023-05-05T09:24:09.640Z,1.77
2023-05-05T09:26:42.451Z,1.80
2023-05-05T09:29:09.229Z,1.90
2023-05-05T09:31:37.003Z,1.77
2023-05-05T09:34:15.386Z,1.70
2023-05-05T09:36:46.494Z,1.95
2023-05-05T09:39:20.617Z,1.63
2023-05-05T09:41:47.068Z,1.35
2023-05-05T09:44:14.028Z,1.90
2023-05-05T09:46:51.176Z,1.75
2023-05-05T09:49:22.234Z,1.40
2023-05-05T09:51:48.847Z,2.05
2023-05-05T09:54:22.308Z,1.88
2023-05-05T09:56:48.814Z,1.75
2023-05-05T09:59:16.849Z,1.88
2023-05-05T10:01:43.291Z,1.70
2023-05-05T10:04:23.710Z,1.67
2023-05-05T10:06:50.217Z,2.03
2023-05-05T10:09:16.911Z,1.30
2023-05-05T10:11:45.247Z,1.60
2023-05-05T10:14:15.489Z,1.70
2023-05-05T10:16:50.412Z,1.90
2023-05-05T10:19:19.552Z,1.77
2023-05-05T10:21:59.315Z,2.20
2023-05-05T10:24:37.512Z,1.50
2023-05-05T10:27:12.688Z,1.73
2023-05-05T10:30:08.447Z,1.70
2023-05-05T10:32:57.302Z,2.08
2023-05-05T10:35:35.338Z,1.33
2023-05-05T10:38:03.578Z,1.55
2023-05-05T10:40:30.842Z,1.52
2023-05-05T10:42:58.305Z,1.98
2023-05-05T10:45:24.982Z,1.70
2023-05-05T10:47:52.935Z,1.77
2023-05-05T10:50:39.064Z,1.52
2023-05-05T10:53:15.547Z,1.88
2023-05-05T10:55:49.858Z,1.65
2023-05-05T10:58:36.594Z,1.70
2023-05-05T11:01:08.692Z,1.27
2023-05-05T11:03:36.703Z,1.48
2023-05-05T11:06:06.014Z,1.60
2023-05-05T11:08:33.078Z,2.10
2023-05-05T11:11:00.051Z,1.52
2023-05-05T11:13:27.025Z,1.58
2023-05-05T11:15:56.015Z,1.48
2023-05-05T11:18:39.967Z,1.50
2023-05-05T11:21:14.506Z,2.35
2023-05-05T11:23:46.715Z,2.00
2023-05-05T11:26:14.539Z,1.90
2023-05-05T11:28:59.108Z,1.63
2023-05-05T11:31:25.568Z,1.77
2023-05-05T11:33:52.400Z,1.98
2023-05-05T11:36:20.316Z,2.20
2023-05-05T11:39:06.653Z,1.52
2023-05-05T11:41:32.898Z,3.08
2023-05-05T11:44:13.429Z,1.55
2023-05-05T11:47:02.732Z,2.35
2023-05-05T11:49:32.234Z,1.75
2023-05-05T11:52:01.475Z,1.67
2023-05-05T11:54:29.180Z,3.22
2023-05-05T11:56:58.347Z,2.08
2023-05-05T11:59:25.170Z,1.95
2023-05-05T12:01:52.299Z,1.75
2023-05-05T12:04:19.762Z,2.00
2023-05-05T12:06:46.615Z,2.00
2023-05-05T12:09:21.469Z,2.35
2023-05-05T12:11:58.425Z,2.65
2023-05-05T12:14:25.455Z,1.92
2023-05-05T12:17:07.517Z,1.92
2023-05-05T12:19:35.612Z,1.88
2023-05-05T12:22:03.516Z,2.05
2023-05-05T12:24:30.272Z,1.88
2023-05-05T12:27:09.914Z,1.95
2023-05-05T12:29:36.483Z,3.10
2023-05-05T12:32:04.268Z,2.75
2023-05-05T12:34:31.927Z,2.40
2023-05-05T12:36:58.434Z,1.85
2023-05-05T12:39:35.311Z,2.03
2023-05-05T12:42:03.350Z,2.10
2023-05-05T12:44:40.108Z,1.83
2023-05-05T12:47:07.648Z,1.75
2023-05-05T12:49:51.196Z,1.95
2023-05-05T12:52:21.250Z,2.05
2023-05-05T12:54:57.672Z,1.63
2023-05-05T12:57:25.753Z,1.88
2023-05-05T12:59:53.487Z,1.98
2023-05-05T13:02:20.887Z,2.15
2023-05-05T13:04:52.229Z,1.70
2023-05-05T13:07:20.725Z,2.00
2023-05-05T13:09:48.903Z,1.45
2023-05-05T13:12:18.655Z,1.85
2023-05-05T13:14:45.650Z,1.92
2023-05-05T13:17:13.026Z,1.85
2023-05-05T13:19:40.233Z,2.28
2023-05-05T13:22:06.743Z,3.63
2023-05-05T13:24:46.574Z,2.00
2023-05-05T13:27:17.676Z,1.90
2023-05-05T13:29:44.043Z,2.55
2023-05-05T13:32:10.346Z,2.63
2023-05-05T13:34:36.760Z,1.73
2023-05-05T13:37:03.166Z,1.98
2023-05-05T13:39:29.501Z,1.95
2023-05-05T13:41:55.841Z,1.80
2023-05-05T13:44:22.214Z,1.80
2023-05-05T13:46:48.697Z,2.22
2023-05-05T13:49:15.706Z,2.17
2023-05-05T13:51:42.373Z,1.52
2023-05-05T13:54:08.900Z,2.03
2023-05-05T13:56:35.530Z,2.08
2023-05-05T13:59:01.836Z,2.03
2023-05-05T14:01:28.516Z,2.25
2023-05-05T14:03:57.285Z,1.65
2023-05-05T14:06:24.734Z,1.50
2023-05-05T14:08:51.207Z,2.45
2023-05-05T14:11:17.575Z,4.05
2023-05-05T14:13:44.009Z,3.75
2023-05-05T14:16:11.444Z,3.75
2023-05-05T14:18:37.754Z,4.57
2023-05-05T14:21:04.167Z,3.88
2023-05-05T14:23:30.792Z,2.33
2023-05-05T14:25:57.362Z,3.13
2023-05-05T14:28:23.654Z,3.83
2023-05-05T14:30:49.955Z,4.15
2023-05-05T14:33:16.389Z,3.65
2023-05-05T14:35:42.838Z,3.03
2023-05-05T14:38:09.165Z,3.25
2023-05-05T14:40:35.552Z,3.38
2023-05-05T14:43:01.959Z,3.42
2023-05-05T14:45:28.276Z,4.47
2023-05-05T14:47:55.107Z,4.57
2023-05-05T14:50:21.527Z,4.15
2023-05-05T14:52:47.824Z,5.10
2023-05-05T14:55:14.226Z,4.75
2023-05-05T14:57:40.704Z,5.05
2023-05-05T15:00:09.352Z,4.47
2023-05-05T15:02:35.727Z,4.55
2023-05-05T15:05:02.192Z,4.20
2023-05-05T15:07:28.556Z,4.85
2023-05-05T15:09:55.447Z,3.88
2023-05-05T15:12:22.465Z,4.22
2023-05-05T15:14:49.030Z,3.75
2023-05-05T15:17:15.398Z,3.30
2023-05-05T15:19:42.347Z,4.07
2023-05-05T15:22:08.713Z,3.55
2023-05-05T15:24:35.135Z,3.20
2023-05-05T15:27:01.549Z,2.85
2023-05-05T15:29:28.018Z,2.70
2023-05-05T15:31:54.399Z,2.45
2023-05-05T15:34:20.720Z,2.67
2023-05-05T15:36:47.122Z,2.97
2023-05-05T15:39:13.441Z,2.88
2023-05-05T15:41:39.962Z,2.72
2023-05-05T15:44:06.415Z,2.58
2023-05-05T15:46:32.797Z,3.28
2023-05-05T15:48:59.243Z,2.28
2023-05-05T15:51:25.683Z,3.55
2023-05-05T15:53:52.611Z,3.17
2023-05-05T15:56:19.419Z,2.65
2023-05-05T15:58:46.023Z,3.00
2023-05-05T16:01:12.394Z,2.72
2023-05-05T16:03:38.960Z,2.88
2023-05-05T16:06:05.612Z,2.28
2023-05-05T16:08:32.234Z,2.60
2023-05-05T16:10:58.529Z,3.10
2023-05-05T16:13:24.923Z,2.78
2023-05-05T16:15:51.285Z,2.92
2023-05-05T16:18:17.865Z,3.08
2023-05-05T16:20:44.353Z,3.45
2023-05-05T16:23:10.671Z,3.22
2023-05-05T16:25:37.342Z,2.35
2023-05-05T16:28:03.992Z,3.13
2023-05-05T16:30:30.441Z,3.45
2023-05-05T16:32:56.833Z,3.10
2023-05-05T16:35:23.360Z,2.70
2023-05-05T16:37:49.920Z,2.95
2023-05-05T16:40:16.259Z,2.63
2023-05-05T16:42:44.497Z,3.13
2023-05-05T16:45:11.538Z,2.92
2023-05-05T16:47:38.287Z,2.80
2023-05-05T16:50:05.275Z,2.60
2023-05-05T16:52:31.580Z,2.70
2023-05-05T16:54:57.967Z,2.75
2023-05-05T16:57:24.552Z,3.22
2023-05-05T16:59:51.123Z,3.10
2023-05-05T17:02:17.609Z,2.63
2023-05-05T17:04:43.926Z,3.30
2023-05-05T17:07:10.445Z,2.35
2023-05-05T17:09:36.800Z,3.30
2023-05-05T17:12:03.387Z,2.47
2023-05-05T17:14:30.346Z,1.95
2023-05-05T17:16:56.724Z,2.88
2023-05-05T17:19:23.106Z,2.42
2023-05-05T17:21:49.514Z,2.80
2023-05-05T17:24:16.582Z,2.60
2023-05-05T17:26:43.025Z,2.35
2023-05-05T17:29:10.948Z,2.75
2023-05-05T17:31:39.036Z,16.60
2023-05-05T17:34:05.420Z,4.55
2023-05-05T17:36:31.754Z,2.83
2023-05-05T17:38:58.046Z,3.22
2023-05-05T17:41:24.580Z,3.28
2023-05-05T17:43:51.303Z,3.65
2023-05-05T17:46:17.751Z,3.70
2023-05-05T17:48:44.230Z,4.03
2023-05-05T17:51:10.562Z,3.85
2023-05-05T17:53:36.956Z,4.35
2023-05-05T17:56:03.355Z,3.47
2023-05-05T17:58:29.767Z,4.45
2023-05-05T18:00:56.101Z,3.88
2023-05-05T18:03:22.775Z,2.88
2023-05-05T18:05:49.199Z,3.45
2023-05-05T18:08:15.619Z,3.50
2023-05-05T18:10:42.527Z,3.60
2023-05-05T18:13:09.109Z,3.65
2023-05-05T18:15:35.487Z,4.30
2023-05-05T18:18:01.916Z,4.00
2023-05-05T18:20:28.236Z,3.28
2023-05-05T18:22:54.614Z,4.38
2023-05-05T18:25:21.034Z,3.80
2023-05-05T18:27:47.355Z,3.83
2023-05-05T18:30:13.882Z,4.15
2023-05-05T18:32:40.216Z,5.32
2023-05-05T18:35:07.439Z,4.55
2023-05-05T18:37:34.174Z,4.22
2023-05-05T18:40:00.472Z,4.00
2023-05-05T18:42:26.771Z,3.97
2023-05-05T18:44:53.234Z,4.35
2023-05-05T18:47:19.521Z,4.50
2023-05-05T18:49:46.390Z,4.50
2023-05-05T18:52:13.049Z,4.63
2023-05-05T18:54:39.342Z,4.50
2023-05-05T18:57:05.689Z,4.38
2023-05-05T18:59:32.047Z,4.70
2023-05-05T19:01:58.417Z,5.20
2023-05-05T19:04:31.365Z,4.68
2023-05-05T19:06:58.841Z,4.38
2023-05-05T19:09:25.179Z,4.68
2023-05-05T19:11:51.474Z,5.70
2023-05-05T19:14:18.126Z,7.68
2023-05-05T19:16:44.656Z,7.47
2023-05-05T19:19:11.226Z,8.60
2023-05-05T19:21:37.553Z,7.30
2023-05-05T19:24:04.163Z,7.00
2023-05-05T19:26:30.589Z,5.47
2023-05-05T19:28:56.934Z,5.88
2023-05-05T19:31:23.383Z,5.55
2023-05-05T19:33:49.707Z,6.95
2023-05-05T19:36:16.072Z,6.00
2023-05-05T19:38:42.472Z,6.65
2023-05-05T19:41:08.801Z,6.00
2023-05-05T19:43:35.126Z,6.30
2023-05-05T19:46:01.715Z,6.68
2023-05-05T19:48:28.207Z,6.43
2023-05-05T19:50:54.690Z,6.72
2023-05-05T19:53:20.989Z,6.07
2023-05-05T19:55:47.373Z,6.78
2023-05-05T19:58:13.751Z,6.30
2023-05-05T20:00:40.213Z,6.20
2023-05-05T20:03:06.678Z,7.32
2023-05-05T20:05:33.124Z,6.82
2023-05-05T20:07:59.620Z,6.72
2023-05-05T20:10:26.025Z,6.22
2023-05-05T20:12:52.350Z,6.45
2023-05-05T20:15:20.150Z,5.63
2023-05-05T20:17:47.822Z,7.55
2023-05-05T20:20:20.240Z,7.10
2023-05-05T20:22:47.979Z,6.72
2023-05-05T20:25:15.056Z,6.10
2023-05-05T20:27:42.074Z,6.45
2023-05-05T20:30:11.878Z,5.60
2023-05-05T20:32:38.478Z,6.43
2023-05-05T20:35:05.353Z,6.15
2023-05-05T20:37:31.704Z,6.10
2023-05-05T20:39:58.069Z,6.47
2023-05-05T20:42:24.563Z,6.30
2023-05-05T20:44:51.315Z,6.32
2023-05-05T20:47:17.706Z,6.70
2023-05-05T20:49:44.103Z,6.70
2023-05-05T20:52:10.404Z,8.40
2023-05-05T20:54:36.843Z,7.70
2023-05-05T20:57:03.221Z,7.88
2023-05-05T20:59:29.574Z,7.28
2023-05-05T21:01:59.344Z,7.85
2023-05-05T21:04:25.810Z,6.97
2023-05-05T21:06:52.212Z,7.90
2023-05-05T21:09:18.606Z,7.38
2023-05-05T21:11:44.927Z,7.40
2023-05-05T21:14:11.323Z,7.75
2023-05-05T21:16:38.057Z,7.50
2023-05-05T21:19:04.644Z,8.02
2023-05-05T21:21:31.008Z,8.65
2023-05-05T21:23:57.662Z,9.40
2023-05-05T21:26:24.810Z,8.63
2023-05-05T21:28:51.858Z,8.75
2023-05-05T21:31:22.268Z,8.48
2023-05-05T21:33:49.034Z,7.97
2023-05-05T21:36:15.352Z,6.78
2023-05-05T21:38:41.880Z,7.47
2023-05-05T21:41:08.179Z,8.20
2023-05-05T21:43:34.679Z,8.40
2023-05-05T21:46:03.558Z,37.80
2023-05-05T21:48:29.937Z,16.75
2023-05-05T21:50:56.368Z,8.75
2023-05-05T21:53:23.704Z,7.13
2023-05-05T21:55:50.373Z,6.72
2023-05-05T21:58:17.040Z,5.97
2023-05-05T22:00:43.425Z,5.50
2023-05-05T22:03:10.180Z,6.93
2023-05-05T22:05:36.517Z,6.13
2023-05-05T22:08:03.086Z,5.50
2023-05-05T22:10:29.617Z,6.47
2023-05-05T22:12:56.151Z,6.03
2023-05-05T22:15:22.750Z,6.22
2023-05-05T22:17:49.190Z,5.30
2023-05-05T22:20:15.828Z,5.72
2023-05-05T22:22:42.217Z,4.70
2023-05-05T22:25:09.412Z,5.57
2023-05-05T22:27:36.148Z,5.15
2023-05-05T22:30:02.515Z,4.75
2023-05-05T22:32:29.061Z,4.35
2023-05-05T22:34:55.500Z,4.70
2023-05-05T22:37:22.103Z,4.13
2023-05-05T22:39:48.393Z,3.85
2023-05-05T22:42:14.898Z,2.85
2023-05-05T22:44:41.201Z,2.53
2023-05-05T22:47:07.838Z,2.10
2023-05-05T22:49:34.285Z,2.40
2023-05-05T22:52:00.619Z,1.77
2023-05-05T22:54:26.948Z,1.90
2023-05-05T22:56:53.455Z,2.10
2023-05-05T22:59:19.787Z,2.08
2023-05-05T23:01:46.169Z,1.60
2023-05-05T23:04:12.642Z,1.80
2023-05-05T23:06:39.104Z,3.03
2023-05-05T23:09:05.507Z,3.13
2023-05-05T23:11:31.845Z,1.77
2023-05-05T23:13:58.340Z,1.73
2023-05-05T23:16:24.914Z,1.63
2023-05-05T23:18:51.314Z,2.67
2023-05-05T23:21:17.716Z,2.08
2023-05-05T23:23:44.016Z,1.92
2023-05-05T23:26:10.442Z,1.02
2023-05-05T23:28:36.818Z,1.17
2023-05-05T23:31:03.269Z,0.98
2023-05-05T23:33:29.584Z,1.15
2023-05-05T23:35:56.036Z,1.30
2023-05-05T23:38:22.402Z,1.90
2023-05-05T23:40:49.140Z,1.08
2023-05-05T23:43:15.507Z,1.10
2023-05-05T23:45:41.874Z,1.50
2023-05-05T23:48:08.637Z,1.23
2023-05-05T23:50:35.062Z,1.15
2023-05-05T23:53:01.358Z,1.60
2023-05-05T23:55:27.791Z,1.70
2023-05-05T23:57:54.158Z,1.40
